< < Back
Terminal Aerodrome Forecast


Current Version              Previous Versions:   1  2  3  4  5  6  7  8  9  

Terminal Aerodrome Forecast

410
FTUS42 KGSP 300900 AAA
TAFGSP
TAF AMD
KGSP 300903Z 3009/0106 00000KT 1/4SM FG VV001
      TEMPO 3009/3013 2SM BR BKN004
     FM301300 00000KT 3SM BR BKN007
     FM301400 35003KT P6SM FEW050
     FM302300 00000KT P6SM FEW250=



Latest METAR

038
SAUS70 KWBC 301200 RRN
MTRGSP
METAR KGSP 301153Z 00000KT 10SM CLR 14/14 A2995 RMK AO2 SLP137 70009
T01440144 10167 20139 53006


USA.gov is the U.S. government's official web portal to all federal, state and local government web resources and services.